createdAt,value
2016-08-08T00:00:00.717Z,80.5
2016-08-08T00:00:11.469Z,80.5
2016-08-08T00:00:20.722Z,80.7
2016-08-08T00:00:31.474Z,80.6
2016-08-08T00:00:41.468Z,80.5
2016-08-08T00:00:51.475Z,80.4
2016-08-08T00:01:00.722Z,80.3
2016-08-08T00:01:11.472Z,80.6
2016-08-08T00:01:21.479Z,80.4
2016-08-08T00:01:31.479Z,80.5
2016-08-08T00:01:41.476Z,80.4
2016-08-08T00:01:51.481Z,80.6
2016-08-08T00:02:01.477Z,80.2
2016-08-08T00:02:11.480Z,80.5
2016-08-08T00:02:20.724Z,80.7
2016-08-08T00:02:31.485Z,80.6
2016-08-08T00:02:40.729Z,80.6
2016-08-08T00:02:51.485Z,80.3
2016-08-08T00:03:00.733Z,80.4
2016-08-08T00:03:11.483Z,80.3
2016-08-08T00:03:21.486Z,80.5
2016-08-08T00:03:31.485Z,80.4
2016-08-08T00:03:40.736Z,80.7
2016-08-08T00:03:51.487Z,80.7
2016-08-08T00:04:01.536Z,80.5
2016-08-08T00:04:11.489Z,80.7
2016-08-08T00:04:21.492Z,80.3
2016-08-08T00:04:31.499Z,80.5
2016-08-08T00:04:41.493Z,80.5
2016-08-08T00:04:51.497Z,80.9
2016-08-08T00:05:01.495Z,80.5
2016-08-08T00:05:11.498Z,80.7
2016-08-08T00:05:20.745Z,80.7
2016-08-08T00:05:31.498Z,80.9
2016-08-08T00:05:41.499Z,80.6
2016-08-08T00:05:50.749Z,80.3
2016-08-08T00:06:00.750Z,80.8
2016-08-08T00:06:11.501Z,80.9
2016-08-08T00:06:20.748Z,80.7
2016-08-08T00:06:31.504Z,80.7
2016-08-08T00:06:40.762Z,80.7
2016-08-08T00:06:51.505Z,81
2016-08-08T00:07:01.503Z,80.5
2016-08-08T00:07:11.508Z,80.4
2016-08-08T00:07:20.751Z,80.6
2016-08-08T00:07:31.508Z,80.7
2016-08-08T00:07:40.752Z,80.3
2016-08-08T00:07:51.510Z,80.6
2016-08-08T00:08:01.515Z,80.6
2016-08-08T00:08:11.510Z,80.7
2016-08-08T00:08:21.509Z,80.6
2016-08-08T00:08:30.759Z,80.3
2016-08-08T00:08:41.515Z,80.3
2016-08-08T00:08:51.517Z,80.5
2016-08-08T00:09:00.761Z,80.3
2016-08-08T00:09:11.519Z,80.5
2016-08-08T00:09:20.764Z,80.5
2016-08-08T00:09:31.521Z,80.7
2016-08-08T00:09:41.522Z,80.6
2016-08-08T00:09:51.517Z,80.6
2016-08-08T00:10:01.521Z,80.5
2016-08-08T00:10:10.764Z,80.5
2016-08-08T00:10:21.523Z,80.5
2016-08-08T00:10:30.768Z,80.5
2016-08-08T00:10:40.772Z,79.9
2016-08-08T00:10:51.524Z,79.8
2016-08-08T00:11:00.774Z,80
2016-08-08T00:11:11.526Z,80
2016-08-08T00:11:21.526Z,79.8
2016-08-08T00:11:41.531Z,79.7
2016-08-08T00:11:50.777Z,79.6
2016-08-08T00:12:00.778Z,79.4
2016-08-08T00:12:11.538Z,79.6
2016-08-08T00:12:20.784Z,79.8
2016-08-08T00:12:31.536Z,79.7
2016-08-08T00:12:41.540Z,79.6
2016-08-08T00:12:51.543Z,79.7
2016-08-08T00:13:01.536Z,79.5
2016-08-08T00:13:10.798Z,79.8
2016-08-08T00:13:21.538Z,79.7
2016-08-08T00:13:31.544Z,79.6
2016-08-08T00:13:41.540Z,79.8
2016-08-08T00:13:51.544Z,79.7
2016-08-08T00:14:00.789Z,79.7
2016-08-08T00:14:11.542Z,79.6
2016-08-08T00:14:20.791Z,79.8
2016-08-08T00:14:31.544Z,80
2016-08-08T00:14:41.559Z,79.7
2016-08-08T00:14:50.794Z,79.9
2016-08-08T00:15:01.551Z,80
2016-08-08T00:15:10.793Z,80
2016-08-08T00:15:21.548Z,80
2016-08-08T00:15:31.549Z,80
2016-08-08T00:15:41.552Z,80.2
2016-08-08T00:15:51.556Z,79.7
2016-08-08T00:16:01.554Z,79.6
2016-08-08T00:16:11.554Z,80
2016-08-08T00:16:21.555Z,80
2016-08-08T00:16:31.556Z,79.7
2016-08-08T00:16:40.801Z,79.6
2016-08-08T00:16:51.558Z,79.7
2016-08-08T00:17:01.559Z,79.6
2016-08-08T00:17:11.560Z,79.7
2016-08-08T00:17:21.563Z,79.3
2016-08-08T00:17:30.806Z,79.1
2016-08-08T00:17:40.806Z,78.9
2016-08-08T00:17:50.816Z,78.9
2016-08-08T00:18:01.569Z,79.3
2016-08-08T00:18:11.564Z,79.3
2016-08-08T00:18:21.571Z,79.8
2016-08-08T00:18:31.566Z,79.6
2016-08-08T00:18:41.566Z,79.3
2016-08-08T00:18:51.567Z,79.4
2016-08-08T00:19:01.567Z,79.1
2016-08-08T00:19:11.569Z,79.6
2016-08-08T00:19:21.572Z,79.6
2016-08-08T00:19:30.822Z,79.6
2016-08-08T00:19:51.573Z,79.4
2016-08-08T00:20:01.575Z,79.4
2016-08-08T00:20:11.574Z,79.6
2016-08-08T00:20:20.823Z,79.9
2016-08-08T00:20:31.574Z,79.5
2016-08-08T00:20:41.578Z,79.8
2016-08-08T00:20:51.577Z,79.6
2016-08-08T00:21:00.827Z,79.1
2016-08-08T00:21:11.582Z,79.2
2016-08-08T00:21:21.584Z,79.9
2016-08-08T00:21:31.585Z,79.8
2016-08-08T00:21:41.584Z,79.6
2016-08-08T00:21:51.583Z,79.7
2016-08-08T00:22:00.829Z,79.8
2016-08-08T00:22:11.588Z,79.7
2016-08-08T00:22:21.587Z,79.9
2016-08-08T00:22:31.588Z,79.6
2016-08-08T00:22:40.834Z,79.9
2016-08-08T00:22:51.593Z,79.7
2016-08-08T00:23:00.835Z,79.6
2016-08-08T00:23:10.840Z,79.8
2016-08-08T00:23:21.590Z,80
2016-08-08T00:23:30.837Z,79.9
2016-08-08T00:23:41.591Z,79.5
2016-08-08T00:23:51.592Z,80.1
2016-08-08T00:24:01.596Z,80.1
2016-08-08T00:24:11.596Z,80.1
2016-08-08T00:24:21.599Z,80.1
2016-08-08T00:24:31.597Z,80
2016-08-08T00:24:41.599Z,80
2016-08-08T00:24:51.598Z,79.8
2016-08-08T00:25:00.847Z,80.3
2016-08-08T00:25:11.601Z,79.9
2016-08-08T00:25:20.856Z,80.1
2016-08-08T00:25:31.604Z,80.2
2016-08-08T00:25:41.603Z,79.9
2016-08-08T00:25:51.604Z,79.8
2016-08-08T00:26:01.606Z,80.2
2016-08-08T00:26:10.855Z,80.3
2016-08-08T00:26:21.606Z,80.3
2016-08-08T00:26:30.853Z,79.8
2016-08-08T00:26:51.608Z,80.2
2016-08-08T00:27:01.611Z,80.5
2016-08-08T00:27:11.613Z,80.6
2016-08-08T00:27:21.618Z,80.4
2016-08-08T00:27:30.864Z,80
2016-08-08T00:27:40.860Z,80.5
2016-08-08T00:27:50.864Z,80.5
2016-08-08T00:28:01.615Z,80.5
2016-08-08T00:28:11.621Z,80.2
2016-08-08T00:28:21.621Z,80.4
2016-08-08T00:28:31.617Z,80.3
2016-08-08T00:28:41.621Z,80.5
2016-08-08T00:28:51.623Z,80.5
2016-08-08T00:29:01.619Z,80.5
2016-08-08T00:29:10.870Z,80.7
2016-08-08T00:29:21.623Z,80.5
2016-08-08T00:29:30.870Z,80.8
2016-08-08T00:29:40.872Z,80.4
2016-08-08T00:29:51.625Z,80.7
2016-08-08T00:30:01.626Z,80.9
2016-08-08T00:30:11.629Z,80.9
2016-08-08T00:30:21.631Z,80.7
2016-08-08T00:30:30.876Z,80.6
2016-08-08T00:30:41.630Z,80.7
2016-08-08T00:30:51.630Z,80.5
2016-08-08T00:31:01.632Z,80.9
2016-08-08T00:31:11.633Z,80.7
2016-08-08T00:31:21.637Z,81.2
2016-08-08T00:31:30.880Z,80.9
2016-08-08T00:31:41.636Z,81.2
2016-08-08T00:31:51.635Z,81.1
2016-08-08T00:32:01.639Z,81.2
2016-08-08T00:32:10.888Z,81.1
2016-08-08T00:32:21.637Z,81.2
2016-08-08T00:32:31.638Z,81.1
2016-08-08T00:32:41.644Z,81.3
2016-08-08T00:32:50.887Z,81.3
2016-08-08T00:33:01.648Z,80.8
2016-08-08T00:33:11.647Z,81.6
2016-08-08T00:33:20.890Z,80.9
2016-08-08T00:33:31.645Z,80.8
2016-08-08T00:33:40.892Z,81.1
2016-08-08T00:33:51.649Z,81
2016-08-08T00:34:01.648Z,81.1
2016-08-08T00:34:11.649Z,81.3
2016-08-08T00:34:20.898Z,81.1
2016-08-08T00:34:30.897Z,81.2
2016-08-08T00:34:41.652Z,81.5
2016-08-08T00:34:51.652Z,81.2
2016-08-08T00:35:01.650Z,81.1
2016-08-08T00:35:11.656Z,81.7
2016-08-08T00:35:21.652Z,81.5
2016-08-08T00:35:30.901Z,81.6
2016-08-08T00:35:41.658Z,81.5
2016-08-08T00:35:51.667Z,81.9
2016-08-08T00:36:01.661Z,81.6
2016-08-08T00:36:11.659Z,82.1
2016-08-08T00:36:21.660Z,81.6
2016-08-08T00:36:31.664Z,81.5
2016-08-08T00:36:41.664Z,81.5
2016-08-08T00:36:51.664Z,81.4
2016-08-08T00:37:01.667Z,81.4
2016-08-08T00:37:11.667Z,81.6
2016-08-08T00:37:20.913Z,81.6
2016-08-08T00:37:31.666Z,81.3
2016-08-08T00:37:40.918Z,81.6
2016-08-08T00:37:51.667Z,81.9
2016-08-08T00:38:01.668Z,81.6
2016-08-08T00:38:11.671Z,81.3
2016-08-08T00:38:20.913Z,81.9
2016-08-08T00:38:30.922Z,82.1
2016-08-08T00:38:41.672Z,82
2016-08-08T00:38:50.920Z,81.9
2016-08-08T00:39:01.674Z,81.7
2016-08-08T00:39:10.921Z,81.7
2016-08-08T00:39:21.674Z,81.7
2016-08-08T00:39:30.922Z,82.3
2016-08-08T00:39:41.678Z,82.4
2016-08-08T00:39:50.924Z,82.3
2016-08-08T00:40:01.682Z,82.3
2016-08-08T00:40:11.681Z,82.2
2016-08-08T00:40:20.928Z,82.3
2016-08-08T00:40:31.681Z,82.2
2016-08-08T00:40:41.683Z,82.3
2016-08-08T00:40:50.931Z,82
2016-08-08T00:41:01.687Z,82.1
2016-08-08T00:41:11.686Z,82.3
2016-08-08T00:41:21.684Z,82.3
2016-08-08T00:41:31.691Z,82.3
2016-08-08T00:41:51.686Z,82
2016-08-08T00:42:01.687Z,81.8
2016-08-08T00:42:11.690Z,82.1
2016-08-08T00:42:20.935Z,82.2
2016-08-08T00:42:31.695Z,82
2016-08-08T00:42:41.691Z,82.3
2016-08-08T00:42:51.696Z,81.7
2016-08-08T00:43:01.696Z,82.7
2016-08-08T00:43:11.697Z,82.3
2016-08-08T00:43:21.696Z,82.2
2016-08-08T00:43:31.702Z,82.3
2016-08-08T00:43:41.699Z,82
2016-08-08T00:43:50.944Z,82.4
2016-08-08T00:44:01.700Z,82.3
2016-08-08T00:44:11.707Z,82.3
2016-08-08T00:44:20.950Z,82.4
2016-08-08T00:44:31.699Z,82.6
2016-08-08T00:44:41.703Z,82.6
2016-08-08T00:44:51.703Z,82.3
2016-08-08T00:45:00.954Z,82.4
2016-08-08T00:45:10.955Z,82.1
2016-08-08T00:45:20.952Z,82.4
2016-08-08T00:45:30.954Z,82.4
2016-08-08T00:45:40.953Z,82.5
2016-08-08T00:45:51.708Z,82.6
2016-08-08T00:46:01.710Z,82.5
2016-08-08T00:46:10.958Z,82.4
2016-08-08T00:46:21.710Z,82.2
2016-08-08T00:46:31.713Z,82.2
2016-08-08T00:46:40.963Z,82.5
2016-08-08T00:46:51.718Z,83
2016-08-08T00:47:00.961Z,82.5
2016-08-08T00:47:11.718Z,82.3
2016-08-08T00:47:21.713Z,82.2
2016-08-08T00:47:31.718Z,82.8
2016-08-08T00:47:40.964Z,82.9
2016-08-08T00:47:51.717Z,82.9
2016-08-08T00:48:01.724Z,82.7
2016-08-08T00:48:11.720Z,82.5
2016-08-08T00:48:21.719Z,83
2016-08-08T00:48:31.723Z,83
2016-08-08T00:48:41.725Z,82.5
2016-08-08T00:48:50.970Z,82.7
2016-08-08T00:49:00.973Z,82.3
2016-08-08T00:49:10.972Z,82.3
2016-08-08T00:49:21.725Z,82.2
2016-08-08T00:49:31.726Z,82.8
2016-08-08T00:49:41.728Z,82.3
2016-08-08T00:49:51.728Z,82.2
2016-08-08T00:50:00.978Z,82.4
2016-08-08T00:50:10.976Z,82.4
2016-08-08T00:50:21.731Z,82.3
2016-08-08T00:50:31.737Z,82.3
2016-08-08T00:50:41.731Z,82.8
2016-08-08T00:50:51.731Z,82.5
2016-08-08T00:51:01.731Z,82.8
2016-08-08T00:51:11.734Z,82.7
2016-08-08T00:51:20.982Z,82.6
2016-08-08T00:51:31.738Z,82.2
2016-08-08T00:51:41.739Z,82.3
2016-08-08T00:51:51.737Z,82.6
2016-08-08T00:52:01.739Z,82.5
2016-08-08T00:52:11.737Z,81.9
2016-08-08T00:52:21.739Z,82.5
2016-08-08T00:52:31.739Z,82.4
2016-08-08T00:52:41.740Z,82.4
2016-08-08T00:52:51.743Z,82.6
2016-08-08T00:53:01.741Z,82.4
2016-08-08T00:53:11.744Z,82.4
2016-08-08T00:53:20.992Z,82.2
2016-08-08T00:53:31.745Z,82.5
2016-08-08T00:53:41.748Z,82.5
2016-08-08T00:53:51.745Z,82.3
2016-08-08T00:54:01.751Z,82.7
2016-08-08T00:54:11.750Z,82.7
2016-08-08T00:54:21.752Z,82.4
2016-08-08T00:54:30.995Z,82.5
2016-08-08T00:54:41.002Z,82.6
2016-08-08T00:54:51.751Z,82.1
2016-08-08T00:55:01.755Z,82.7
2016-08-08T00:55:11.753Z,82.7
2016-08-08T00:55:21.754Z,82.9
2016-08-08T00:55:31.755Z,82.2
2016-08-08T00:55:41.001Z,82.5
2016-08-08T00:55:51.756Z,82.5
2016-08-08T00:56:01.756Z,82.4
2016-08-08T00:56:11.756Z,82.3
2016-08-08T00:56:21.760Z,82.6
2016-08-08T00:56:31.761Z,81.9
2016-08-08T00:56:51.764Z,82.4
2016-08-08T00:57:01.764Z,81.9
2016-08-08T00:57:11.011Z,82.2
2016-08-08T00:57:21.764Z,82.3
2016-08-08T00:57:31.765Z,82
2016-08-08T00:57:41.018Z,82.3
2016-08-08T00:57:51.018Z,82.1
2016-08-08T00:58:01.771Z,82
2016-08-08T00:58:11.017Z,82.4
2016-08-08T00:58:21.770Z,82.1
2016-08-08T00:58:31.026Z,82
2016-08-08T00:58:41.770Z,82.1
2016-08-08T00:58:51.774Z,82.3
2016-08-08T00:59:01.772Z,82
2016-08-08T00:59:11.773Z,82.4
2016-08-08T00:59:21.773Z,82.3
2016-08-08T00:59:31.772Z,82.3
2016-08-08T00:59:41.025Z,82.7
2016-08-08T00:59:51.780Z,82.6
2016-08-08T01:00:01.782Z,82.1
2016-08-08T01:00:11.780Z,82.4
2016-08-08T01:00:21.779Z,82.4
2016-08-08T01:00:31.780Z,82.5
2016-08-08T01:00:41.783Z,82.6
2016-08-08T01:00:51.780Z,82.5
2016-08-08T01:01:01.783Z,82.1
2016-08-08T01:01:11.783Z,82.1
2016-08-08T01:01:21.783Z,82.8
2016-08-08T01:01:31.035Z,82.8
2016-08-08T01:01:41.784Z,82.3
2016-08-08T01:01:51.782Z,82.2
2016-08-08T01:02:01.789Z,82.3
2016-08-08T01:02:11.796Z,82.2
2016-08-08T01:02:21.792Z,82.3
2016-08-08T01:02:31.792Z,82.3
2016-08-08T01:02:41.790Z,82.2
2016-08-08T01:02:51.839Z,82.6
2016-08-08T01:03:01.796Z,82.2
2016-08-08T01:03:11.791Z,82.1
2016-08-08T01:03:21.044Z,82.3
2016-08-08T01:03:31.040Z,82.3
2016-08-08T01:03:41.794Z,82.6
2016-08-08T01:03:51.800Z,82.5
2016-08-08T01:04:01.049Z,82.6
2016-08-08T01:04:11.810Z,82.4
2016-08-08T01:04:21.798Z,82.3
2016-08-08T01:04:31.799Z,82.4
2016-08-08T01:04:41.043Z,82.9
2016-08-08T01:04:51.800Z,82.7
2016-08-08T01:05:01.047Z,82.9
2016-08-08T01:05:11.802Z,83
2016-08-08T01:05:21.805Z,83
2016-08-08T01:05:31.805Z,82.9
2016-08-08T01:05:41.802Z,82.9
2016-08-08T01:05:51.856Z,82.9
2016-08-08T01:06:01.053Z,82.9
2016-08-08T01:06:11.811Z,82.9
2016-08-08T01:06:21.055Z,82.8
2016-08-08T01:06:31.060Z,83
2016-08-08T01:06:41.808Z,82.9
2016-08-08T01:06:51.811Z,83.3
2016-08-08T01:07:01.811Z,83.5
2016-08-08T01:07:11.058Z,83.4
2016-08-08T01:07:21.060Z,82.9
2016-08-08T01:07:31.068Z,83.5
2016-08-08T01:07:41.817Z,83.2
2016-08-08T01:07:51.059Z,83.1
2016-08-08T01:08:01.817Z,83.3
2016-08-08T01:08:11.063Z,83.1
2016-08-08T01:08:21.819Z,82.8
2016-08-08T01:08:31.823Z,82.9
2016-08-08T01:08:41.820Z,82.9
2016-08-08T01:08:51.118Z,83.5
2016-08-08T01:09:01.067Z,83.2
2016-08-08T01:09:11.067Z,83.4
2016-08-08T01:09:21.072Z,83.5
2016-08-08T01:09:31.824Z,83.4
2016-08-08T01:09:41.822Z,83.5
2016-08-08T01:09:51.074Z,83.5
2016-08-08T01:10:01.827Z,83.3
2016-08-08T01:10:11.828Z,83.4
2016-08-08T01:10:21.074Z,83.5
2016-08-08T01:10:31.828Z,83.1
2016-08-08T01:10:41.827Z,83.1
2016-08-08T01:10:51.878Z,82.9
2016-08-08T01:11:01.831Z,83.1
2016-08-08T01:11:11.083Z,83.4
2016-08-08T01:11:21.834Z,82.9
2016-08-08T01:11:31.833Z,82.7
2016-08-08T01:11:51.079Z,82.9
2016-08-08T01:12:01.084Z,82.9
2016-08-08T01:12:11.834Z,82.8
2016-08-08T01:12:21.838Z,82.7
2016-08-08T01:12:31.839Z,83
2016-08-08T01:12:41.840Z,83.1
2016-08-08T01:12:51.841Z,83
2016-08-08T01:13:01.839Z,82.9
2016-08-08T01:13:11.840Z,82.9
2016-08-08T01:13:21.088Z,82.9
2016-08-08T01:13:31.846Z,82.7
2016-08-08T01:13:41.843Z,82.9
2016-08-08T01:13:51.090Z,82.9
2016-08-08T01:14:01.092Z,82.7
2016-08-08T01:14:11.843Z,82.8
2016-08-08T01:14:21.096Z,82.7
2016-08-08T01:14:31.846Z,83.2
2016-08-08T01:14:41.098Z,83
2016-08-08T01:14:51.848Z,82.9
2016-08-08T01:15:01.848Z,83.1
2016-08-08T01:15:11.851Z,82.9
2016-08-08T01:15:21.097Z,83
2016-08-08T01:15:31.098Z,83
2016-08-08T01:15:41.110Z,83.4
2016-08-08T01:15:51.852Z,83.5
2016-08-08T01:16:01.856Z,83.3
2016-08-08T01:16:11.103Z,83.4
2016-08-08T01:16:21.856Z,83.7
2016-08-08T01:16:31.858Z,83.7
2016-08-08T01:16:41.860Z,83.5
2016-08-08T01:16:51.863Z,83.5
2016-08-08T01:17:01.108Z,83.4
2016-08-08T01:17:11.115Z,83.2
2016-08-08T01:17:21.118Z,83.4
2016-08-08T01:17:31.859Z,83.4
2016-08-08T01:17:41.865Z,83.6
2016-08-08T01:17:51.108Z,84.2
2016-08-08T01:18:01.114Z,84.2
2016-08-08T01:18:11.863Z,84.3
2016-08-08T01:18:21.867Z,84.6
2016-08-08T01:18:31.866Z,84.5
2016-08-08T01:18:41.867Z,84.6
2016-08-08T01:18:51.921Z,84.5
2016-08-08T01:19:01.869Z,84.4
2016-08-08T01:19:11.120Z,84
2016-08-08T01:19:21.872Z,84.2
2016-08-08T01:19:31.873Z,84.2
2016-08-08T01:19:41.876Z,84.2
2016-08-08T01:19:51.870Z,84.2
2016-08-08T01:20:01.875Z,84.9
2016-08-08T01:20:11.876Z,84.4
2016-08-08T01:20:21.123Z,84.7
2016-08-08T01:20:31.123Z,84.6
2016-08-08T01:20:41.126Z,84.6
2016-08-08T01:20:51.124Z,84.7
2016-08-08T01:21:01.126Z,84.6
2016-08-08T01:21:11.876Z,84.5
2016-08-08T01:21:21.888Z,85
2016-08-08T01:21:31.882Z,84.5
2016-08-08T01:21:41.134Z,85.1
2016-08-08T01:21:51.129Z,85.2
2016-08-08T01:22:01.136Z,85.1
2016-08-08T01:22:11.130Z,85.4
2016-08-08T01:22:21.887Z,84.5
2016-08-08T01:22:31.885Z,85
2016-08-08T01:22:41.132Z,84.6
2016-08-08T01:22:51.887Z,85.1
2016-08-08T01:23:01.891Z,84.9
2016-08-08T01:23:11.892Z,85.1
2016-08-08T01:23:21.136Z,85.1
2016-08-08T01:23:31.890Z,85.4
2016-08-08T01:23:41.137Z,84.9
2016-08-08T01:23:51.138Z,85.1
2016-08-08T01:24:01.139Z,85
2016-08-08T01:24:11.898Z,84.9
2016-08-08T01:24:21.895Z,85.3
2016-08-08T01:24:31.148Z,84.9
2016-08-08T01:24:41.150Z,84.9
2016-08-08T01:24:51.898Z,84.1
2016-08-08T01:25:01.898Z,84.4
2016-08-08T01:25:11.143Z,84.3
2016-08-08T01:25:21.149Z,84.6
2016-08-08T01:25:31.900Z,83.9
2016-08-08T01:25:41.901Z,83.9
2016-08-08T01:25:51.901Z,83.5
2016-08-08T01:26:01.905Z,83.6
2016-08-08T01:26:11.153Z,83.1
2016-08-08T01:26:21.907Z,83.4
2016-08-08T01:26:31.907Z,83.5
2016-08-08T01:26:41.154Z,82.9
2016-08-08T01:27:01.165Z,83.3
2016-08-08T01:27:11.907Z,83.3
2016-08-08T01:27:21.908Z,83.5
2016-08-08T01:27:31.911Z,83.3
2016-08-08T01:27:41.155Z,83.3
2016-08-08T01:27:51.158Z,83.7
2016-08-08T01:28:01.911Z,83.3
2016-08-08T01:28:11.914Z,83.5
2016-08-08T01:28:21.162Z,83.5
2016-08-08T01:28:31.162Z,82.9
2016-08-08T01:28:41.166Z,83.3
2016-08-08T01:28:51.916Z,83.3
2016-08-08T01:29:01.163Z,83
2016-08-08T01:29:11.167Z,83.4
2016-08-08T01:29:21.163Z,83.3
2016-08-08T01:29:31.920Z,83.2
2016-08-08T01:29:41.171Z,83
2016-08-08T01:29:51.170Z,82.7
2016-08-08T01:30:01.185Z,83
2016-08-08T01:30:11.923Z,83.1
2016-08-08T01:30:21.921Z,83.3
2016-08-08T01:30:31.925Z,83.3
2016-08-08T01:30:41.926Z,82.8
2016-08-08T01:30:51.176Z,83
2016-08-08T01:31:01.926Z,82.9
2016-08-08T01:31:11.930Z,82.7
2016-08-08T01:31:21.930Z,83
2016-08-08T01:31:31.927Z,82.4
2016-08-08T01:31:41.930Z,82.4
2016-08-08T01:31:51.933Z,82.2
2016-08-08T01:32:01.936Z,82.5
2016-08-08T01:32:11.931Z,82.2
2016-08-08T01:32:21.936Z,82.2
2016-08-08T01:32:31.177Z,82.8
2016-08-08T01:32:41.933Z,82.3
2016-08-08T01:32:51.936Z,82.7
2016-08-08T01:33:01.185Z,82.8
2016-08-08T01:33:11.936Z,82.1
2016-08-08T01:33:21.938Z,82.4
2016-08-08T01:33:31.941Z,82.6
2016-08-08T01:33:41.940Z,82.3
2016-08-08T01:33:51.938Z,82.1
2016-08-08T01:34:01.942Z,82.5
2016-08-08T01:34:11.940Z,82.3
2016-08-08T01:34:21.942Z,82.1
2016-08-08T01:34:31.942Z,82
2016-08-08T01:34:41.948Z,82.5
2016-08-08T01:34:51.946Z,82.3
2016-08-08T01:35:01.951Z,81.8
2016-08-08T01:35:11.944Z,82.1
2016-08-08T01:35:21.949Z,82
2016-08-08T01:35:31.193Z,81.6
2016-08-08T01:35:41.949Z,81.7
2016-08-08T01:35:51.949Z,81.6
2016-08-08T01:36:01.953Z,81.6
2016-08-08T01:36:11.949Z,81.5
2016-08-08T01:36:21.951Z,81.4
2016-08-08T01:36:31.952Z,81
2016-08-08T01:36:41.199Z,81.1
2016-08-08T01:36:51.956Z,81.4
2016-08-08T01:37:01.200Z,81.4
2016-08-08T01:37:11.204Z,81.4
2016-08-08T01:37:21.956Z,81
2016-08-08T01:37:31.201Z,81
2016-08-08T01:37:41.957Z,81.1
2016-08-08T01:37:51.959Z,80.8
2016-08-08T01:38:01.207Z,80.9
2016-08-08T01:38:11.962Z,80.8
2016-08-08T01:38:21.959Z,81
2016-08-08T01:38:31.960Z,80.8
2016-08-08T01:38:41.960Z,80.6
2016-08-08T01:38:51.963Z,81.2
2016-08-08T01:39:01.214Z,80.7
2016-08-08T01:39:11.966Z,81.1
2016-08-08T01:39:21.964Z,80.6
2016-08-08T01:39:31.214Z,80.5
2016-08-08T01:39:41.982Z,80.1
2016-08-08T01:39:51.966Z,80.5
2016-08-08T01:40:01.968Z,80.4
2016-08-08T01:40:11.967Z,80.6
2016-08-08T01:40:21.215Z,80.6
2016-08-08T01:40:31.972Z,80.5
2016-08-08T01:40:41.219Z,80.4
2016-08-08T01:40:51.220Z,80.5
2016-08-08T01:41:01.219Z,80.2
2016-08-08T01:41:11.975Z,80.6
2016-08-08T01:41:21.975Z,80.2
2016-08-08T01:41:31.980Z,80.2
2016-08-08T01:41:41.979Z,80.3
2016-08-08T01:42:01.228Z,80.2
2016-08-08T01:42:11.978Z,80.4
2016-08-08T01:42:21.979Z,80.4
2016-08-08T01:42:31.982Z,80.5
2016-08-08T01:42:41.982Z,80.5
2016-08-08T01:42:51.982Z,80
2016-08-08T01:43:01.984Z,80.4
2016-08-08T01:43:11.982Z,80.3
2016-08-08T01:43:21.984Z,80.7
2016-08-08T01:43:31.986Z,80.7
2016-08-08T01:43:41.236Z,81.1
2016-08-08T01:43:51.988Z,80.9
2016-08-08T01:44:01.988Z,80.8
2016-08-08T01:44:11.987Z,81.4
2016-08-08T01:44:21.988Z,81.2
2016-08-08T01:44:31.990Z,81.4
2016-08-08T01:44:41.236Z,80.8
2016-08-08T01:44:51.987Z,81.2
2016-08-08T01:45:01.990Z,80.8
2016-08-08T01:45:11.994Z,81.3
2016-08-08T01:45:21.996Z,81.7
2016-08-08T01:45:31.992Z,81.7
2016-08-08T01:45:41.242Z,81.2
2016-08-08T01:45:52.013Z,81.2
2016-08-08T01:46:01.997Z,81.1
2016-08-08T01:46:11.997Z,81.1
2016-08-08T01:46:21.997Z,80.8
2016-08-08T01:46:31.999Z,81.7
2016-08-08T01:46:41.246Z,81.4
2016-08-08T01:46:51.251Z,81.5
2016-08-08T01:47:01.249Z,81.3
2016-08-08T01:47:11.249Z,81.5
2016-08-08T01:47:22.003Z,81.2
2016-08-08T01:47:31.252Z,81.8
2016-08-08T01:47:42.003Z,81.6
2016-08-08T01:47:51.268Z,81.5
2016-08-08T01:48:01.255Z,81.7
2016-08-08T01:48:12.007Z,81.5
2016-08-08T01:48:22.007Z,81.5
2016-08-08T01:48:32.008Z,81.7
2016-08-08T01:48:41.255Z,81.4
2016-08-08T01:48:51.255Z,82.4
2016-08-08T01:49:02.011Z,82
2016-08-08T01:49:11.256Z,82.5
2016-08-08T01:49:22.012Z,81.9
2016-08-08T01:49:32.017Z,82
2016-08-08T01:49:41.259Z,82.3
2016-08-08T01:49:52.017Z,82.1
2016-08-08T01:50:01.262Z,82.4
2016-08-08T01:50:12.014Z,82.3
2016-08-08T01:50:22.017Z,82.3
2016-08-08T01:50:32.019Z,82.4
2016-08-08T01:50:41.266Z,82.3
2016-08-08T01:50:52.020Z,82.7
2016-08-08T01:51:02.019Z,82.8
2016-08-08T01:51:11.261Z,82.8
2016-08-08T01:51:22.020Z,82.5
2016-08-08T01:51:32.021Z,82.4
2016-08-08T01:51:41.271Z,82.2
2016-08-08T01:51:51.272Z,82.5
2016-08-08T01:52:02.026Z,82.5
2016-08-08T01:52:12.023Z,82.8
2016-08-08T01:52:22.024Z,82.7
2016-08-08T01:52:32.024Z,83
2016-08-08T01:52:42.026Z,82.9
2016-08-08T01:52:51.276Z,82.6
2016-08-08T01:53:01.275Z,82.6
2016-08-08T01:53:12.027Z,82.3
2016-08-08T01:53:22.033Z,82.1
2016-08-08T01:53:31.275Z,82.1
2016-08-08T01:53:41.275Z,83.1
2016-08-08T01:53:52.033Z,82.4
2016-08-08T01:54:02.042Z,82.5
2016-08-08T01:54:12.029Z,82.7
2016-08-08T01:54:21.281Z,82.9
2016-08-08T01:54:32.034Z,83.1
2016-08-08T01:54:42.037Z,83
2016-08-08T01:54:52.039Z,82.8
2016-08-08T01:55:01.285Z,83
2016-08-08T01:55:12.037Z,82.9
2016-08-08T01:55:22.037Z,83
2016-08-08T01:55:32.044Z,83
2016-08-08T01:55:42.039Z,83.1
2016-08-08T01:55:52.043Z,83.1
2016-08-08T01:56:02.044Z,83
2016-08-08T01:56:12.042Z,82.8
2016-08-08T01:56:22.043Z,82.8
2016-08-08T01:56:32.045Z,83
2016-08-08T01:56:42.045Z,83
2016-08-08T01:57:02.051Z,82.7
2016-08-08T01:57:12.048Z,82.7
2016-08-08T01:57:22.047Z,83.1
2016-08-08T01:57:32.049Z,82.6
2016-08-08T01:57:41.294Z,82.6
2016-08-08T01:57:52.047Z,82.4
2016-08-08T01:58:01.302Z,82.4
2016-08-08T01:58:12.052Z,82.4
2016-08-08T01:58:22.053Z,82.3
2016-08-08T01:58:32.054Z,82.9
2016-08-08T01:58:42.054Z,82.3
2016-08-08T01:58:52.055Z,83.1
2016-08-08T01:59:01.301Z,82.3
2016-08-08T01:59:11.302Z,82.7
2016-08-08T01:59:21.306Z,82.7
2016-08-08T01:59:32.058Z,82.8
2016-08-08T01:59:41.306Z,82.4
2016-08-08T01:59:52.063Z,82.5
2016-08-08T02:00:02.064Z,82.8
2016-08-08T02:00:12.061Z,82.4
2016-08-08T02:00:21.306Z,82.5
2016-08-08T02:00:32.063Z,82.4
2016-08-08T02:00:42.065Z,82.1
2016-08-08T02:00:51.308Z,81.6
2016-08-08T02:01:01.309Z,81.7
2016-08-08T02:01:12.065Z,81.5
2016-08-08T02:01:22.066Z,82.1
2016-08-08T02:01:31.313Z,81.9
2016-08-08T02:01:42.067Z,81.5
2016-08-08T02:01:52.065Z,81.4
2016-08-08T02:02:01.313Z,81.8
2016-08-08T02:02:11.320Z,81.5
2016-08-08T02:02:22.071Z,81.6
2016-08-08T02:02:31.324Z,81.6
2016-08-08T02:02:41.319Z,81.4
2016-08-08T02:02:51.317Z,81
2016-08-08T02:03:02.075Z,80.7
2016-08-08T02:03:12.072Z,81.2
2016-08-08T02:03:22.074Z,81.1
2016-08-08T02:03:32.076Z,81.6
2016-08-08T02:03:42.076Z,81.2
2016-08-08T02:03:51.326Z,81.1
2016-08-08T02:04:02.077Z,80.8
2016-08-08T02:04:12.079Z,81.6
2016-08-08T02:04:22.081Z,81.3
2016-08-08T02:04:32.082Z,81.7
2016-08-08T02:04:41.327Z,81.1
2016-08-08T02:04:52.083Z,81.2
2016-08-08T02:05:01.325Z,80.7
2016-08-08T02:05:11.329Z,81.4
2016-08-08T02:05:21.330Z,81.2
2016-08-08T02:05:32.085Z,81.2
2016-08-08T02:05:41.329Z,81
2016-08-08T02:05:52.084Z,81.6
2016-08-08T02:06:02.088Z,81
2016-08-08T02:06:12.087Z,81.2
2016-08-08T02:06:22.086Z,81.2
2016-08-08T02:06:32.089Z,81.1
2016-08-08T02:06:42.091Z,80.7
2016-08-08T02:06:52.090Z,81
2016-08-08T02:07:02.091Z,80.5
2016-08-08T02:07:12.090Z,80.3
2016-08-08T02:07:22.094Z,80.5
2016-08-08T02:07:31.341Z,80.2
2016-08-08T02:07:42.093Z,80.4
2016-08-08T02:07:52.094Z,80.3
2016-08-08T02:08:02.098Z,80.4
2016-08-08T02:08:12.095Z,80.8
2016-08-08T02:08:22.098Z,80.2
2016-08-08T02:08:32.100Z,80.4
2016-08-08T02:08:41.350Z,80.2
2016-08-08T02:08:52.100Z,80.3
2016-08-08T02:09:02.100Z,80.4
2016-08-08T02:09:12.097Z,80.4
2016-08-08T02:09:22.102Z,80.4
2016-08-08T02:09:32.104Z,80.3
2016-08-08T02:09:41.351Z,80.6
2016-08-08T02:09:52.109Z,80.1
2016-08-08T02:10:02.104Z,80
2016-08-08T02:10:11.355Z,80.2
2016-08-08T02:10:21.353Z,80.5
2016-08-08T02:10:31.366Z,80.6
2016-08-08T02:10:42.108Z,80
2016-08-08T02:10:52.110Z,80.4
2016-08-08T02:11:02.110Z,80.1
2016-08-08T02:11:12.106Z,80.4
2016-08-08T02:11:21.356Z,79.7
2016-08-08T02:11:32.110Z,79.8
2016-08-08T02:11:41.372Z,79.8
2016-08-08T02:12:02.114Z,80
2016-08-08T02:12:12.116Z,79.8
2016-08-08T02:12:22.115Z,79.9
2016-08-08T02:12:32.114Z,79.8
2016-08-08T02:12:42.120Z,79.6
2016-08-08T02:12:52.117Z,79.9
2016-08-08T02:13:01.362Z,79.8
2016-08-08T02:13:11.366Z,80.1
2016-08-08T02:13:21.368Z,79.6
2016-08-08T02:13:32.119Z,79.3
2016-08-08T02:13:42.123Z,80
2016-08-08T02:13:52.119Z,79.7
2016-08-08T02:14:02.123Z,79.7
2016-08-08T02:14:12.126Z,79.4
2016-08-08T02:14:21.373Z,80.1
2016-08-08T02:14:32.122Z,79.9
2016-08-08T02:14:41.376Z,80.1
2016-08-08T02:14:52.127Z,80.2
2016-08-08T02:15:02.129Z,79.6
2016-08-08T02:15:12.128Z,79.6
2016-08-08T02:15:22.127Z,79.9
2016-08-08T02:15:32.129Z,80.1